Time;durP1;ratioP1;P1;durP2;ratioP2;P2;SDS_P1;SDS_P2;PMS_P1;PMS_P2;Temp;Humidity;BMP_temperature;BMP_pressure;BME280_temperature;BME280_humidity;BME280_pressure;Samples;Min_cycle;Max_cycle;Signal;HPM_P1;HPM_P2
2022/01/14 00:01:42;;;;;;;51.15;27.50;;;-0.20;99.90;;;;;;5033289;28;20207;-75
2022/01/14 00:04:09;;;;;;;57.00;28.83;;;-0.20;99.90;;;;;;5034500;28;20206;-73
2022/01/14 00:06:37;;;;;;;51.50;28.83;;;-0.20;99.90;;;;;;5034396;28;20322;-74
2022/01/14 00:09:06;;;;;;;62.40;28.80;;;-0.20;99.90;;;;;;5034189;28;20561;-73
2022/01/14 00:11:33;;;;;;;57.72;29.00;;;-0.20;99.90;;;;;;5033571;28;20693;-74
2022/01/14 00:14:10;;;;;;;64.38;30.52;;;-0.20;99.90;;;;;;5034219;28;20648;-73
2022/01/14 00:16:38;;;;;;;58.92;28.73;;;-0.30;99.90;;;;;;5034189;28;20226;-73
2022/01/14 00:19:05;;;;;;;66.43;29.73;;;-0.30;99.90;;;;;;5034371;28;20258;-73
2022/01/14 00:21:34;;;;;;;61.28;28.77;;;-0.30;99.90;;;;;;5035036;28;20211;-73
2022/01/14 00:24:08;;;;;;;61.88;32.10;;;-0.30;99.90;;;;;;5035066;28;20221;-73
2022/01/14 00:32:17;;;;;;;65.15;31.45;;;-0.30;99.90;;;;;;5009092;28;20191;-75
2022/01/14 00:34:44;;;;;;;58.20;29.73;;;-0.20;99.90;;;;;;5034024;28;20235;-73
2022/01/14 00:37:10;;;;;;;68.38;32.17;;;-0.30;99.90;;;;;;5033476;28;20702;-73
2022/01/14 00:39:37;;;;;;;60.47;30.65;;;-0.30;99.90;;;;;;5033775;28;20227;-73
2022/01/14 00:42:05;;;;;;;59.35;30.15;;;-0.40;99.90;;;;;;5032820;28;20210;-73
2022/01/14 00:44:32;;;;;;;69.47;31.83;;;-0.50;99.90;;;;;;5033804;28;20236;-73
2022/01/14 00:46:58;;;;;;;64.80;30.08;;;-0.50;99.90;;;;;;5033236;28;20789;-73
2022/01/14 00:49:27;;;;;;;60.85;30.75;;;-0.50;99.90;;;;;;5033395;28;20209;-74
2022/01/14 00:51:53;;;;;;;73.63;33.42;;;-0.50;99.90;;;;;;5032830;28;20671;-74
2022/01/14 00:54:20;;;;;;;64.00;31.20;;;-0.50;99.90;;;;;;5034280;28;20213;-74
2022/01/14 00:57:01;;;;;;;63.25;30.58;;;-0.50;99.90;;;;;;5033001;28;20235;-74
2022/01/14 00:59:27;;;;;;;70.25;32.33;;;-0.60;99.90;;;;;;5033665;28;20212;-74
2022/01/14 01:01:58;;;;;;;67.10;32.83;;;-0.70;99.90;;;;;;5032817;28;20202;-74
2022/01/14 01:04:32;;;;;;;71.93;32.45;;;-0.70;99.90;;;;;;5033171;28;20207;-74
2022/01/14 01:07:00;;;;;;;69.80;34.38;;;-0.70;99.90;;;;;;5032691;28;20711;-74
2022/01/14 01:09:29;;;;;;;71.53;33.72;;;-0.70;99.90;;;;;;5033156;28;20229;-73
2022/01/14 01:12:09;;;;;;;73.95;34.50;;;-0.70;99.90;;;;;;5032381;28;20629;-73
2022/01/14 01:14:43;;;;;;;73.65;34.65;;;-0.80;99.90;;;;;;5014025;28;20207;-74
2022/01/14 01:17:10;;;;;;;73.93;33.65;;;-0.70;99.90;;;;;;5036376;28;20310;-75
2022/01/14 01:19:38;;;;;;;63.47;31.60;;;-0.80;99.90;;;;;;5035305;28;20227;-74
2022/01/14 01:22:05;;;;;;;79.18;34.90;;;-0.80;99.90;;;;;;5034194;28;20210;-73
2022/01/14 01:24:32;;;;;;;85.50;34.85;;;-0.90;99.90;;;;;;5036639;28;20219;-73
2022/01/14 01:27:04;;;;;;;74.57;32.35;;;-0.80;99.90;;;;;;5036753;28;20381;-73
2022/01/14 01:29:48;;;;;;;62.95;29.65;;;-0.70;99.90;;;;;;5038830;28;20247;-73
2022/01/14 01:32:15;;;;;;;64.95;31.30;;;-0.70;99.90;;;;;;5037552;28;20246;-73
2022/01/14 01:34:44;;;;;;;101.28;35.45;;;-0.60;99.90;;;;;;5038719;28;20207;-73
2022/01/14 01:37:10;;;;;;;101.97;36.47;;;-0.70;99.90;;;;;;5033528;28;20591;-73
2022/01/14 01:39:38;;;;;;;71.80;31.75;;;-0.70;99.90;;;;;;5032493;28;20314;-73
2022/01/14 01:42:08;;;;;;;91.88;33.40;;;-0.70;99.90;;;;;;5032378;28;20675;-73
2022/01/14 01:44:37;;;;;;;71.10;31.75;;;-0.70;99.90;;;;;;5033272;28;20253;-73
2022/01/14 01:47:05;;;;;;;63.08;32.58;;;-0.60;99.90;;;;;;5032892;28;20289;-73
2022/01/14 01:49:38;;;;;;;72.53;33.78;;;-0.60;99.90;;;;;;5032965;28;20279;-76
2022/01/14 01:52:07;;;;;;;67.78;31.02;;;-0.50;99.90;;;;;;5032977;28;20214;-74
2022/01/14 01:54:34;;;;;;;66.85;31.92;;;-0.40;99.90;;;;;;5032960;28;20211;-74
2022/01/14 01:57:01;;;;;;;76.93;35.75;;;-0.40;99.90;;;;;;5033887;28;20223;-74
2022/01/14 01:59:29;;;;;;;79.32;34.67;;;-0.30;99.90;;;;;;5035152;28;20233;-73
2022/01/14 02:01:58;;;;;;;69.03;32.55;;;-0.30;99.90;;;;;;5033884;28;20289;-73
2022/01/14 02:04:27;;;;;;;75.00;34.75;;;-0.30;99.90;;;;;;5033400;28;20218;-74
2022/01/14 02:06:55;;;;;;;67.43;31.77;;;-0.30;99.90;;;;;;5032960;28;20218;-75
2022/01/14 02:09:24;;;;;;;70.45;33.00;;;-0.30;99.90;;;;;;5026100;28;20203;-75
2022/01/14 02:11:51;;;;;;;62.55;32.65;;;-0.20;99.90;;;;;;5019852;28;20214;-75
2022/01/14 02:14:40;;;;;;;68.38;34.85;;;-0.20;99.90;;;;;;5032289;28;20215;-75
2022/01/14 02:17:30;;;;;;;66.15;32.08;;;-0.30;99.90;;;;;;5031995;28;20237;-75
2022/01/14 02:22:49;;;;;;;68.05;31.33;;;-0.40;99.90;;;;;;5032006;28;20564;-74
2022/01/14 02:25:22;;;;;;;73.30;32.40;;;-0.40;99.90;;;;;;5035056;28;20233;-74
2022/01/14 02:27:50;;;;;;;70.10;30.58;;;-0.50;99.90;;;;;;5037143;28;20203;-75
2022/01/14 02:30:17;;;;;;;78.57;34.35;;;-0.50;99.90;;;;;;5040872;28;20207;-75
2022/01/14 02:32:44;;;;;;;95.68;33.83;;;-0.50;99.90;;;;;;5044491;28;20211;-75
2022/01/14 02:35:12;;;;;;;66.50;30.02;;;-0.60;99.90;;;;;;5041279;28;20219;-75
2022/01/14 02:37:40;;;;;;;75.85;31.40;;;-0.60;99.90;;;;;;5040259;28;20217;-75
2022/01/14 02:40:08;;;;;;;61.03;29.83;;;-0.60;99.90;;;;;;5034930;28;20219;-74
2022/01/14 02:42:35;;;;;;;65.15;31.35;;;-0.60;99.90;;;;;;5035890;28;20292;-74
2022/01/14 02:45:05;;;;;;;71.20;33.30;;;-0.60;99.90;;;;;;5035694;28;20201;-74
2022/01/14 02:47:33;;;;;;;70.13;32.60;;;-0.70;99.90;;;;;;5036796;28;20219;-74
2022/01/14 02:49:59;;;;;;;60.78;30.45;;;-0.70;99.90;;;;;;5035594;28;20202;-74
2022/01/14 02:52:41;;;;;;;64.63;32.50;;;-0.70;99.90;;;;;;5035316;28;20219;-74
2022/01/14 02:55:18;;;;;;;58.13;28.23;;;-0.70;99.90;;;;;;5035642;28;20639;-74
2022/01/14 02:57:46;;;;;;;64.60;32.00;;;-0.70;99.90;;;;;;5039472;28;20698;-74
2022/01/14 03:00:15;;;;;;;59.05;28.45;;;-0.70;99.90;;;;;;5041835;28;20637;-74
2022/01/14 03:02:44;;;;;;;63.10;29.80;;;-0.70;99.90;;;;;;5037767;28;20290;-75
2022/01/14 03:05:11;;;;;;;72.47;31.52;;;-0.70;99.90;;;;;;5035937;28;20223;-75
2022/01/14 03:07:41;;;;;;;62.67;31.30;;;-0.70;99.90;;;;;;5035663;28;20219;-75
2022/01/14 03:10:10;;;;;;;62.88;30.15;;;-0.60;99.90;;;;;;5035015;28;20199;-75
2022/01/14 03:12:38;;;;;;;63.20;30.27;;;-0.70;99.90;;;;;;5035213;28;20257;-75
2022/01/14 03:15:06;;;;;;;62.45;32.22;;;-0.70;99.90;;;;;;5035045;28;20669;-75
2022/01/14 03:17:33;;;;;;;71.68;31.63;;;-0.80;99.90;;;;;;5035645;28;20211;-74
2022/01/14 03:20:01;;;;;;;62.22;31.27;;;-0.80;99.90;;;;;;5035109;28;20225;-74
2022/01/14 03:22:32;;;;;;;65.47;30.98;;;-0.80;99.90;;;;;;5035125;28;20211;-74
2022/01/14 03:27:45;;;;;;;73.55;32.97;;;-0.70;99.90;;;;;;5034705;28;20209;-75
2022/01/14 03:30:13;;;;;;;56.25;28.63;;;-0.70;99.90;;;;;;5035476;28;20215;-74
2022/01/14 03:32:40;;;;;;;62.85;30.63;;;-0.60;99.90;;;;;;5035323;28;20207;-75
2022/01/14 03:35:08;;;;;;;74.47;32.28;;;-0.50;99.90;;;;;;5035145;28;20258;-74
2022/01/14 03:37:36;;;;;;;60.58;31.70;;;-0.50;99.90;;;;;;5035144;28;20294;-74
2022/01/14 03:40:07;;;;;;;60.53;30.85;;;-0.40;99.90;;;;;;5035674;28;20219;-74
2022/01/14 03:42:34;;;;;;;64.03;31.02;;;-0.40;99.90;;;;;;5035329;28;20294;-74
2022/01/14 03:45:01;;;;;;;68.57;31.60;;;-0.40;99.90;;;;;;5034936;28;20217;-75
2022/01/14 03:47:28;;;;;;;63.67;30.25;;;-0.40;99.90;;;;;;5036167;28;20222;-75
2022/01/14 03:49:55;;;;;;;56.47;28.75;;;-0.30;99.90;;;;;;5038742;28;20624;-75
2022/01/14 03:52:21;;;;;;;55.25;29.50;;;-0.40;99.90;;;;;;5039869;28;20207;-75
2022/01/14 03:54:49;;;;;;;53.47;28.77;;;-0.40;99.90;;;;;;5040324;28;20290;-76
2022/01/14 03:57:17;;;;;;;58.63;29.02;;;-0.40;99.90;;;;;;5036234;28;20204;-75
2022/01/14 03:59:44;;;;;;;58.55;28.58;;;-0.30;99.90;;;;;;5035023;28;20218;-74
2022/01/14 04:02:11;;;;;;;55.13;28.52;;;-0.30;99.90;;;;;;5034971;28;20272;-74
2022/01/14 04:04:38;;;;;;;57.80;28.75;;;-0.40;99.90;;;;;;5036107;28;20207;-75
2022/01/14 04:07:05;;;;;;;65.07;29.15;;;-0.40;99.90;;;;;;5035188;28;20313;-75
2022/01/14 04:09:36;;;;;;;55.10;28.15;;;-0.30;99.90;;;;;;5034960;28;20207;-74
2022/01/14 04:12:04;;;;;;;56.63;30.27;;;-0.30;99.90;;;;;;5036882;28;20199;-75
2022/01/14 04:17:16;;;;;;;54.70;26.90;;;-0.40;99.90;;;;;;5017000;28;20214;-74
2022/01/14 04:19:42;;;;;;;58.33;30.15;;;-0.30;99.90;;;;;;5034205;28;20209;-75
2022/01/14 04:22:09;;;;;;;56.28;28.70;;;-0.20;99.90;;;;;;5033760;28;20222;-75
2022/01/14 04:24:36;;;;;;;61.97;30.80;;;-0.20;99.90;;;;;;5034219;28;20215;-75
2022/01/14 04:27:03;;;;;;;62.60;31.10;;;-0.20;99.90;;;;;;5034023;28;20239;-75
2022/01/14 04:29:32;;;;;;;61.15;29.95;;;-0.20;99.90;;;;;;5034125;28;20211;-76
2022/01/14 04:31:59;;;;;;;72.70;34.03;;;-0.10;99.90;;;;;;5033576;28;20206;-74
2022/01/14 04:34:26;;;;;;;59.83;30.50;;;-0.30;99.90;;;;;;5034013;28;20210;-75
2022/01/14 04:36:53;;;;;;;63.60;30.25;;;-0.40;99.90;;;;;;5033901;28;20223;-75
2022/01/14 04:39:20;;;;;;;58.72;29.52;;;-0.30;99.90;;;;;;5034263;28;20221;-75
2022/01/14 04:41:47;;;;;;;62.10;30.65;;;-0.20;99.90;;;;;;5033724;28;20241;-74
2022/01/14 04:44:13;;;;;;;55.95;30.73;;;-0.20;99.90;;;;;;5043035;28;20230;-74
2022/01/14 04:47:01;;;;;;;64.90;28.40;;;-0.10;99.90;;;;;;5051557;28;20295;-74
2022/01/14 04:49:28;;;;;;;60.60;29.90;;;-0.10;99.90;;;;;;5054490;28;20203;-75
2022/01/14 04:51:56;;;;;;;67.13;31.55;;;-0.10;99.90;;;;;;5053612;28;20271;-74
2022/01/14 04:54:23;;;;;;;69.40;32.03;;;-0.10;99.90;;;;;;5052419;28;20198;-75
2022/01/14 04:56:51;;;;;;;63.50;30.70;;;0.00;99.90;;;;;;5038170;28;20296;-76
2022/01/14 04:59:18;;;;;;;65.65;32.15;;;0.00;99.90;;;;;;5034693;28;20564;-75
2022/01/14 05:01:46;;;;;;;90.90;32.13;;;0.00;99.90;;;;;;5042435;28;20318;-75
2022/01/14 05:04:13;;;;;;;63.97;30.83;;;-0.10;99.90;;;;;;5035832;28;20289;-74
2022/01/14 05:06:43;;;;;;;62.17;31.25;;;-0.10;99.90;;;;;;5034047;28;20263;-76
2022/01/14 05:09:20;;;;;;;67.40;31.38;;;-0.10;99.90;;;;;;5034317;28;20232;-75
2022/01/14 05:11:53;;;;;;;72.90;30.23;;;0.00;99.90;;;;;;5032973;28;20203;-75
2022/01/14 05:14:20;;;;;;;68.43;31.55;;;0.00;99.90;;;;;;5033409;28;20211;-74
2022/01/14 05:16:48;;;;;;;69.75;31.98;;;0.00;99.90;;;;;;5033298;28;20784;-74
2022/01/14 05:19:15;;;;;;;72.95;32.97;;;0.00;99.90;;;;;;5033453;28;20229;-76
2022/01/14 05:21:42;;;;;;;65.25;32.30;;;0.00;99.90;;;;;;5032499;28;20306;-76
2022/01/14 05:24:09;;;;;;;64.30;30.60;;;0.00;99.90;;;;;;5033357;28;20744;-74
2022/01/14 05:26:35;;;;;;;68.00;30.95;;;0.00;99.90;;;;;;5032528;28;20230;-74
2022/01/14 05:29:02;;;;;;;64.18;31.92;;;0.10;99.90;;;;;;5032239;28;20271;-75
2022/01/14 05:31:43;;;;;;;64.88;29.80;;;0.10;99.90;;;;;;5032164;28;20211;-75
2022/01/14 05:34:12;;;;;;;70.50;31.20;;;0.10;99.90;;;;;;5032550;28;20210;-74
2022/01/14 05:36:39;;;;;;;59.88;29.80;;;0.10;99.90;;;;;;5032291;28;20219;-74
2022/01/14 05:39:06;;;;;;;59.42;30.33;;;0.00;99.90;;;;;;5040144;28;20294;-76
2022/01/14 05:41:34;;;;;;;70.50;33.72;;;0.00;99.90;;;;;;5041205;28;20261;-77
2022/01/14 05:44:01;;;;;;;66.53;32.85;;;-0.10;99.90;;;;;;5032963;28;20539;-75
2022/01/14 05:46:28;;;;;;;72.68;30.95;;;-0.10;99.90;;;;;;5032145;28;20352;-75
2022/01/14 05:48:55;;;;;;;78.80;31.80;;;-0.10;99.90;;;;;;5032528;28;20640;-75
2022/01/14 05:51:23;;;;;;;65.50;31.20;;;0.00;99.90;;;;;;5032218;28;20200;-75
2022/01/14 05:53:50;;;;;;;70.32;30.75;;;0.00;99.90;;;;;;5033476;28;20230;-75
2022/01/14 05:56:17;;;;;;;67.32;31.35;;;0.00;99.90;;;;;;5032884;28;20223;-75
2022/01/14 05:58:44;;;;;;;71.78;33.28;;;0.00;99.90;;;;;;5033085;28;20280;-74
2022/01/14 06:01:11;;;;;;;69.22;33.28;;;0.00;99.90;;;;;;5032856;28;20390;-75
2022/01/14 06:03:38;;;;;;;72.43;34.40;;;0.00;99.90;;;;;;5033561;28;20246;-75
2022/01/14 06:06:05;;;;;;;74.72;33.13;;;0.00;99.90;;;;;;5035153;28;20234;-75
2022/01/14 06:08:33;;;;;;;74.25;34.58;;;0.00;99.90;;;;;;5034097;28;20207;-74
2022/01/14 06:11:00;;;;;;;78.68;33.15;;;0.00;99.90;;;;;;5037848;28;20278;-74
2022/01/14 06:13:27;;;;;;;78.68;32.05;;;0.10;99.90;;;;;;5035326;28;20269;-74
2022/01/14 06:15:54;;;;;;;78.38;33.25;;;0.10;99.90;;;;;;5037254;28;20291;-75
2022/01/14 06:18:21;;;;;;;74.45;33.70;;;0.10;99.90;;;;;;5035061;28;20568;-75
2022/01/14 06:20:48;;;;;;;77.60;32.92;;;0.20;99.90;;;;;;5031809;28;20199;-74
2022/01/14 06:23:15;;;;;;;69.72;33.25;;;0.10;99.90;;;;;;5032683;28;20294;-75
2022/01/14 06:25:43;;;;;;;76.15;32.58;;;0.10;99.90;;;;;;5032395;28;20306;-75
2022/01/14 06:28:10;;;;;;;76.15;32.75;;;0.20;99.90;;;;;;5032817;28;20298;-75
2022/01/14 06:30:37;;;;;;;74.38;32.65;;;0.20;99.90;;;;;;5032336;28;20230;-75
2022/01/14 06:33:04;;;;;;;75.47;32.45;;;0.20;99.90;;;;;;5032547;28;20290;-75
2022/01/14 06:35:31;;;;;;;78.65;34.53;;;0.20;99.90;;;;;;5032513;28;20629;-75
2022/01/14 06:37:59;;;;;;;77.07;33.60;;;0.30;99.90;;;;;;5032303;28;20214;-74
2022/01/14 06:40:27;;;;;;;66.80;32.10;;;0.30;99.90;;;;;;5032143;28;20579;-75
2022/01/14 06:42:56;;;;;;;82.78;32.83;;;0.20;99.90;;;;;;5031663;28;20596;-75
2022/01/14 06:45:23;;;;;;;78.90;32.40;;;0.30;99.90;;;;;;5032140;28;20231;-74
2022/01/14 06:47:50;;;;;;;78.45;34.40;;;0.40;99.90;;;;;;5031934;28;20227;-73
2022/01/14 06:50:18;;;;;;;75.78;33.38;;;0.30;99.90;;;;;;5033320;28;20207;-75
2022/01/14 06:52:45;;;;;;;72.72;31.55;;;0.30;99.90;;;;;;5037442;28;20199;-75
2022/01/14 06:55:12;;;;;;;77.20;34.47;;;0.30;99.90;;;;;;5035188;28;20227;-75
2022/01/14 06:57:39;;;;;;;76.85;33.72;;;0.30;99.90;;;;;;5032215;28;20213;-75
2022/01/14 07:00:10;;;;;;;78.68;32.63;;;0.40;99.90;;;;;;5032777;28;20235;-75
2022/01/14 07:02:37;;;;;;;82.38;33.60;;;0.40;99.90;;;;;;5031532;28;20237;-75
2022/01/14 07:05:05;;;;;;;86.78;34.15;;;0.40;99.90;;;;;;5031982;28;20683;-75
2022/01/14 07:07:32;;;;;;;70.32;32.58;;;0.50;99.90;;;;;;5032614;28;20286;-74
2022/01/14 07:09:59;;;;;;;74.63;33.65;;;0.50;99.90;;;;;;5032737;28;20207;-74
2022/01/14 07:12:27;;;;;;;72.60;33.70;;;0.60;99.90;;;;;;5035299;28;20285;-75
2022/01/14 07:14:54;;;;;;;81.13;32.78;;;0.60;99.90;;;;;;5036819;28;20203;-74
2022/01/14 07:17:22;;;;;;;83.57;31.77;;;0.60;99.90;;;;;;5038249;28;20211;-74
2022/01/14 07:19:52;;;;;;;79.25;33.30;;;0.60;99.90;;;;;;5037298;28;20211;-73
2022/01/14 07:22:20;;;;;;;83.20;34.25;;;0.60;99.90;;;;;;5035683;28;20643;-74
2022/01/14 07:24:47;;;;;;;79.00;33.03;;;0.60;99.90;;;;;;5036168;28;20310;-77
2022/01/14 07:27:14;;;;;;;77.82;33.25;;;0.60;99.90;;;;;;5036148;28;20230;-76
2022/01/14 07:29:42;;;;;;;84.32;32.58;;;0.70;99.90;;;;;;5036701;28;20215;-75
2022/01/14 07:32:09;;;;;;;81.63;34.65;;;0.70;99.90;;;;;;5036519;28;20210;-76
2022/01/14 07:34:38;;;;;;;84.78;35.30;;;0.70;99.90;;;;;;5036079;28;20610;-76
2022/01/14 07:37:05;;;;;;;73.57;34.35;;;0.80;99.90;;;;;;5035797;28;20258;-74
2022/01/14 07:39:32;;;;;;;74.93;32.50;;;0.80;99.90;;;;;;5035462;28;20223;-76
2022/01/14 07:41:59;;;;;;;82.57;31.90;;;0.80;99.90;;;;;;5035135;28;20255;-75
2022/01/14 07:44:25;;;;;;;84.97;32.13;;;0.80;99.90;;;;;;5035555;28;20238;-75
2022/01/14 07:46:52;;;;;;;68.63;31.63;;;0.80;99.90;;;;;;5021793;28;20247;-75
2022/01/14 07:49:19;;;;;;;75.45;34.22;;;0.80;99.90;;;;;;5020715;28;20215;-75
2022/01/14 07:51:47;;;;;;;67.10;30.17;;;0.80;99.90;;;;;;5036445;28;20217;-76
2022/01/14 07:54:14;;;;;;;79.80;32.72;;;0.80;99.90;;;;;;5036475;28;20505;-76
2022/01/14 07:56:45;;;;;;;72.60;32.42;;;0.80;99.90;;;;;;5035757;28;20842;-76
2022/01/14 07:59:13;;;;;;;91.18;32.20;;;0.80;99.90;;;;;;5016290;28;20212;-76
2022/01/14 08:01:41;;;;;;;68.63;31.27;;;0.70;99.90;;;;;;5033459;28;20528;-76
2022/01/14 08:04:08;;;;;;;71.97;31.40;;;0.70;99.90;;;;;;5016972;28;20579;-76
2022/01/14 08:06:39;;;;;;;69.85;30.60;;;0.70;99.90;;;;;;5028561;28;20229;-76
2022/01/14 08:09:07;;;;;;;68.00;30.52;;;0.70;99.90;;;;;;5019615;28;20216;-76
2022/01/14 08:11:34;;;;;;;68.40;29.90;;;0.70;99.90;;;;;;5030842;28;20210;-76
2022/01/14 08:14:00;;;;;;;74.32;31.40;;;0.70;99.90;;;;;;5034192;28;20213;-77
2022/01/14 08:16:27;;;;;;;68.05;31.00;;;0.70;99.90;;;;;;5037586;28;20245;-76
2022/01/14 08:18:54;;;;;;;59.58;28.85;;;0.70;99.90;;;;;;5036234;28;20221;-74
2022/01/14 08:21:21;;;;;;;65.07;28.90;;;0.70;99.90;;;;;;5037443;28;20235;-76
2022/01/14 08:23:49;;;;;;;70.35;30.20;;;0.70;99.90;;;;;;5038100;28;20213;-75
2022/01/14 08:26:17;;;;;;;67.43;30.13;;;0.70;99.90;;;;;;5044735;28;20223;-75
2022/01/14 08:28:44;;;;;;;58.13;28.98;;;0.70;99.90;;;;;;5042008;28;20230;-75
2022/01/14 08:31:11;;;;;;;53.33;26.70;;;0.70;99.90;;;;;;5035127;28;20294;-75
2022/01/14 08:33:38;;;;;;;59.00;27.98;;;0.70;99.90;;;;;;5051298;28;20294;-76
2022/01/14 08:36:05;;;;;;;55.45;28.50;;;0.70;99.90;;;;;;5041239;28;20243;-76
2022/01/14 08:38:32;;;;;;;67.65;29.63;;;0.70;99.90;;;;;;5045057;28;20207;-76
2022/01/14 08:40:59;;;;;;;57.85;29.20;;;0.80;99.90;;;;;;5031820;28;20616;-76
2022/01/14 08:43:27;;;;;;;60.20;29.60;;;0.80;99.90;;;;;;5030247;28;20267;-75
2022/01/14 08:45:57;;;;;;;68.82;31.98;;;0.80;99.90;;;;;;5020366;28;20670;-76
2022/01/14 08:48:25;;;;;;;57.60;28.20;;;0.90;99.90;;;;;;5038999;28;20225;-76
2022/01/14 08:50:52;;;;;;;57.88;28.08;;;0.90;99.90;;;;;;5038484;28;20246;-77
2022/01/14 08:53:20;;;;;;;62.85;29.60;;;1.00;99.90;;;;;;5041501;28;20228;-76
2022/01/14 08:55:47;;;;;;;61.65;28.83;;;1.00;99.90;;;;;;5031203;28;20714;-76
2022/01/14 08:58:14;;;;;;;58.10;27.27;;;1.00;99.90;;;;;;5027593;28;20269;-76
2022/01/14 09:00:42;;;;;;;62.20;29.50;;;1.00;99.90;;;;;;5026132;28;20207;-74
2022/01/14 09:03:09;;;;;;;55.53;28.75;;;1.10;99.90;;;;;;5036186;28;20274;-76
2022/01/14 09:05:36;;;;;;;54.35;29.67;;;1.20;99.90;;;;;;5031058;28;20227;-76
2022/01/14 09:08:04;;;;;;;52.85;28.33;;;1.00;99.90;;;;;;5049730;22;20250;-76
2022/01/14 09:10:31;;;;;;;65.00;30.27;;;1.00;99.90;;;;;;5046417;28;20208;-78
2022/01/14 09:12:58;;;;;;;61.40;30.10;;;1.10;99.90;;;;;;5056812;28;20203;-76
2022/01/14 09:15:24;;;;;;;59.83;27.27;;;1.10;99.90;;;;;;5040910;28;20218;-76
2022/01/14 09:17:53;;;;;;;56.63;26.95;;;1.30;99.90;;;;;;5040603;28;20227;-76
2022/01/14 09:20:19;;;;;;;52.92;27.75;;;1.30;99.90;;;;;;5050598;28;20230;-76
2022/01/14 09:22:51;;;;;;;55.17;27.85;;;1.30;99.90;;;;;;5046453;28;20789;-76
2022/01/14 09:25:20;;;;;;;51.45;27.17;;;1.30;99.40;;;;;;5049309;28;20548;-76
2022/01/14 09:27:50;;;;;;;59.20;29.50;;;1.30;98.90;;;;;;5052084;28;20227;-76
2022/01/14 09:30:17;;;;;;;48.15;27.23;;;1.10;97.30;;;;;;5046443;28;20206;-75
2022/01/14 09:32:44;;;;;;;52.53;27.13;;;1.10;97.80;;;;;;5049679;28;20226;-75
2022/01/14 09:35:13;;;;;;;51.55;26.70;;;1.30;98.40;;;;;;5042379;28;20211;-77
2022/01/14 09:37:41;;;;;;;58.72;29.45;;;1.40;98.20;;;;;;5043650;28;20294;-77
2022/01/14 09:40:09;;;;;;;54.78;27.02;;;1.40;97.30;;;;;;5045010;28;20206;-76
2022/01/14 09:42:36;;;;;;;56.65;28.90;;;1.60;97.10;;;;;;5047169;28;20266;-76
2022/01/14 09:45:04;;;;;;;46.45;26.02;;;1.60;95.70;;;;;;5036714;28;20287;-77
2022/01/14 09:47:31;;;;;;;50.90;25.60;;;1.70;95.40;;;;;;5024619;28;20208;-77
2022/01/14 09:49:58;;;;;;;46.22;25.85;;;1.70;94.20;;;;;;5024874;28;20226;-76
2022/01/14 09:52:26;;;;;;;54.97;25.75;;;1.70;93.90;;;;;;5025290;28;20210;-76
2022/01/14 09:54:53;;;;;;;57.28;26.15;;;1.60;93.90;;;;;;5021480;28;20297;-76
2022/01/14 09:57:20;;;;;;;53.53;26.77;;;1.80;94.10;;;;;;5023813;28;20279;-76
2022/01/14 09:59:47;;;;;;;48.92;26.88;;;1.80;93.30;;;;;;5023309;28;20237;-78
2022/01/14 10:02:37;;;;;;;52.08;28.38;;;1.80;92.30;;;;;;5029817;28;20227;-77
2022/01/14 10:05:05;;;;;;;47.20;25.13;;;2.00;92.50;;;;;;5035693;28;20207;-76
2022/01/14 10:07:34;;;;;;;51.35;25.33;;;2.10;92.30;;;;;;5024499;28;20265;-75
2022/01/14 10:10:01;;;;;;;49.47;26.83;;;2.00;91.30;;;;;;5026688;28;20208;-76
2022/01/14 10:12:34;;;;;;;48.60;26.30;;;2.10;91.10;;;;;;5023296;28;20203;-77
2022/01/14 10:15:06;;;;;;;48.30;26.00;;;2.20;90.50;;;;;;5019973;28;20211;-76
2022/01/14 10:17:36;;;;;;;49.35;25.05;;;2.20;89.10;;;;;;5035514;28;20552;-76
2022/01/14 10:20:05;;;;;;;41.33;24.58;;;2.10;87.20;;;;;;5033439;28;20267;-76
2022/01/14 10:22:36;;;;;;;45.38;25.55;;;2.10;87.00;;;;;;5021366;28;20228;-77
2022/01/14 10:25:06;;;;;;;51.00;25.50;;;2.20;86.10;;;;;;5024852;28;20256;-74
2022/01/14 10:27:36;;;;;;;48.15;24.80;;;2.20;85.50;;;;;;5022847;28;20215;-78
2022/01/14 10:30:13;;;;;;;48.55;24.00;;;2.30;85.60;;;;;;5024933;28;20207;-77
2022/01/14 10:32:41;;;;;;;49.45;25.13;;;2.30;83.30;;;;;;5024895;28;20655;-79
2022/01/14 10:35:10;;;;;;;46.95;25.90;;;2.50;83.60;;;;;;5026627;28;20216;-76
2022/01/14 10:37:38;;;;;;;44.63;24.40;;;2.70;82.30;;;;;;5029019;28;20235;-75
2022/01/14 10:40:13;;;;;;;48.15;25.70;;;2.70;79.50;;;;;;5048985;28;20648;-76
2022/01/14 10:42:41;;;;;;;47.58;26.23;;;2.80;79.60;;;;;;5048098;28;20223;-75
2022/01/14 10:45:19;;;;;;;49.75;27.13;;;2.70;79.50;;;;;;5052981;28;20231;-77
2022/01/14 10:47:58;;;;;;;46.33;25.30;;;2.60;79.40;;;;;;5057015;28;20241;-75
2022/01/14 10:50:34;;;;;;;45.88;26.65;;;2.70;80.10;;;;;;5067179;28;20195;-75
2022/01/14 10:53:08;;;;;;;45.65;24.08;;;2.60;79.40;;;;;;5032723;28;20510;-78
2022/01/14 10:55:37;;;;;;;46.40;24.90;;;2.60;79.40;;;;;;5042588;28;20647;-79
2022/01/14 10:58:08;;;;;;;51.90;25.33;;;2.70;79.40;;;;;;5041447;28;20224;-80
2022/01/14 11:00:40;;;;;;;50.55;27.00;;;2.70;78.40;;;;;;5023043;28;20196;-76
2022/01/14 11:03:07;;;;;;;50.00;25.70;;;2.60;78.60;;;;;;5025856;28;20238;-76
2022/01/14 11:05:35;;;;;;;47.80;25.92;;;2.70;79.50;;;;;;5039255;28;20206;-76
2022/01/14 11:08:04;;;;;;;42.55;23.33;;;2.90;79.60;;;;;;5038341;28;20273;-77
2022/01/14 11:10:33;;;;;;;44.42;25.33;;;2.90;79.10;;;;;;5038640;28;20218;-77
2022/01/14 11:13:01;;;;;;;44.65;25.70;;;3.10;77.60;;;;;;5037616;28;20207;-77
2022/01/14 11:15:31;;;;;;;45.70;24.08;;;3.00;76.20;;;;;;5018211;28;20210;-77
2022/01/14 11:18:04;;;;;;;45.88;25.10;;;3.00;76.70;;;;;;5019618;28;20258;-76
2022/01/14 11:20:36;;;;;;;46.75;25.33;;;3.10;76.20;;;;;;5037861;28;20288;-77
2022/01/14 11:23:16;;;;;;;49.08;25.02;;;3.00;75.00;;;;;;5035868;28;20234;-76
2022/01/14 11:25:49;;;;;;;48.28;26.10;;;3.00;75.60;;;;;;5038514;28;20219;-77
2022/01/14 11:28:21;;;;;;;42.33;24.90;;;3.10;75.60;;;;;;5037472;28;20329;-76
2022/01/14 11:30:48;;;;;;;46.15;25.02;;;3.20;75.10;;;;;;5039428;28;20309;-76
2022/01/14 11:33:16;;;;;;;44.72;25.70;;;3.20;74.90;;;;;;5021673;28;20230;-76
2022/01/14 11:35:58;;;;;;;43.90;24.83;;;3.20;74.30;;;;;;5022831;28;20238;-77
2022/01/14 11:38:41;;;;;;;44.42;24.90;;;3.30;74.30;;;;;;5026113;28;20232;-77
2022/01/14 11:41:10;;;;;;;47.03;25.85;;;3.20;74.50;;;;;;5043226;28;20257;-76
2022/01/14 11:43:43;;;;;;;44.65;25.63;;;3.20;73.90;;;;;;5053315;28;20287;-78
2022/01/14 11:46:12;;;;;;;46.40;25.75;;;3.00;73.50;;;;;;5055136;28;20286;-76
2022/01/14 11:48:44;;;;;;;47.45;25.55;;;2.80;73.70;;;;;;5072682;28;20222;-76
2022/01/14 11:51:12;;;;;;;39.53;24.10;;;2.80;75.30;;;;;;5057213;28;20217;-78
2022/01/14 11:53:48;;;;;;;48.20;26.75;;;2.70;74.60;;;;;;5045963;28;20730;-79
2022/01/14 11:56:49;;;;;;;43.42;25.17;;;2.50;75.70;;;;;;5041150;28;20470;-76
2022/01/14 11:59:44;;;;;;;43.03;24.88;;;2.50;77.20;;;;;;5025737;28;20230;-77
2022/01/14 12:02:34;;;;;;;45.85;25.23;;;2.50;77.40;;;;;;5017680;28;20200;-77
2022/01/14 12:05:14;;;;;;;47.00;24.13;;;2.50;76.70;;;;;;4994983;28;20296;-77
2022/01/14 12:08:18;;;;;;;45.85;26.23;;;2.40;78.90;;;;;;5013845;28;20234;-76
2022/01/14 12:10:48;;;;;;;42.33;25.13;;;2.50;79.30;;;;;;5013135;28;20594;-78
2022/01/14 12:13:22;;;;;;;48.50;25.73;;;2.60;79.40;;;;;;4995813;28;20216;-78
2022/01/14 12:15:56;;;;;;;51.65;28.60;;;2.60;78.90;;;;;;4996239;28;20239;-79
2022/01/14 12:18:56;;;;;;;54.33;27.55;;;2.60;78.90;;;;;;5014399;28;20227;-78
2022/01/14 12:21:51;;;;;;;48.80;26.20;;;2.70;79.50;;;;;;5005638;28;20212;-78
2022/01/14 12:24:32;;;;;;;46.47;25.80;;;2.70;78.60;;;;;;4998238;28;20228;-78
2022/01/14 12:27:23;;;;;;;52.75;27.05;;;2.70;78.40;;;;;;5007743;28;20287;-77
2022/01/14 12:29:51;;;;;;;47.55;25.75;;;2.60;77.50;;;;;;5021579;28;20629;-77
2022/01/14 12:32:20;;;;;;;47.72;26.83;;;2.50;77.90;;;;;;5034908;28;20622;-75
2022/01/14 12:35:04;;;;;;;52.15;27.45;;;2.50;78.30;;;;;;5015730;28;20200;-77
2022/01/14 12:37:33;;;;;;;52.17;28.15;;;2.50;79.30;;;;;;5026099;28;20340;-77
2022/01/14 12:40:08;;;;;;;50.53;27.13;;;2.60;79.40;;;;;;5017911;28;20238;-77
2022/01/14 12:42:38;;;;;;;51.88;28.13;;;2.70;79.50;;;;;;5030212;28;20677;-76
2022/01/14 12:45:11;;;;;;;47.03;25.80;;;2.70;79.50;;;;;;5041004;28;20299;-77
2022/01/14 12:47:41;;;;;;;49.65;26.95;;;2.70;79.50;;;;;;5040207;28;20679;-75
2022/01/14 12:50:11;;;;;;;50.38;25.33;;;2.80;79.50;;;;;;5032063;28;20211;-77
2022/01/14 12:52:49;;;;;;;49.80;27.10;;;2.70;78.90;;;;;;5044140;28;20210;-78
2022/01/14 12:55:17;;;;;;;49.88;26.90;;;2.80;78.50;;;;;;5018436;28;20234;-77
2022/01/14 12:57:45;;;;;;;53.95;28.98;;;2.80;78.60;;;;;;5020510;28;20291;-77
2022/01/14 13:00:14;;;;;;;53.75;28.27;;;2.90;77.70;;;;;;5024898;28;20200;-76